createdAt,value
2022-08-01T00:00:06.845Z,102264.94
2022-08-01T00:02:39.745Z,102278.03
2022-08-01T00:05:07.741Z,102298.03
2022-08-01T00:07:35.205Z,102305.56
2022-08-01T00:10:03.733Z,102303.81
2022-08-01T00:12:30.199Z,102301.69
2022-08-01T00:14:56.782Z,102301.69
2022-08-01T00:17:23.259Z,102305.22
2022-08-01T00:19:49.722Z,102307.94
2022-08-01T00:22:16.297Z,102310.53
2022-08-01T00:24:42.795Z,102312.25
2022-08-01T00:27:09.295Z,102321.88
2022-08-01T00:30:12.644Z,102332.63
2022-08-01T00:32:22.392Z,102327.69
2022-08-01T00:34:48.999Z,102332.63
2022-08-01T00:37:16.306Z,102332.13
2022-08-01T00:39:43.122Z,102340.34
2022-08-01T00:42:11.780Z,102337.88
2022-08-01T00:44:39.232Z,102342.78
2022-08-01T00:47:06.094Z,102350.81
2022-08-01T00:49:32.832Z,102352.72
2022-08-01T00:52:00.145Z,102349.88
2022-08-01T00:54:28.027Z,102345.78
2022-08-01T00:56:55.993Z,102356.63
2022-08-01T00:59:23.659Z,102361.84
2022-08-01T01:01:52.872Z,102365.97
2022-08-01T01:04:20.638Z,102358.34
2022-08-01T01:07:02.220Z,102371.66
2022-08-01T01:09:51.472Z,102380.50
2022-08-01T01:12:45.798Z,102376.22
2022-08-01T01:15:41.108Z,102380.63
2022-08-01T01:18:15.508Z,102376.56
2022-08-01T01:20:46.706Z,102387.38
2022-08-01T01:23:21.965Z,102398.16
2022-08-01T01:26:22.432Z,102392.66
2022-08-01T01:29:07.156Z,102392.75
2022-08-01T01:31:41.257Z,102400.88
2022-08-01T01:34:10.272Z,102410.31
2022-08-01T01:36:38.035Z,102408.78
2022-08-01T01:39:04.776Z,102420.00
2022-08-01T01:41:32.063Z,102424.91
2022-08-01T01:44:01.339Z,102417.59
2022-08-01T01:46:29.678Z,102414.19
2022-08-01T01:48:57.631Z,102409.78
2022-08-01T01:51:28.385Z,102416.47
2022-08-01T01:53:56.791Z,102413.66
2022-08-01T01:56:25.239Z,102423.38
2022-08-01T01:58:55.738Z,102428.34
2022-08-01T02:02:08.234Z,102424.53
2022-08-01T02:04:17.532Z,102429.63
2022-08-01T02:06:45.783Z,102427.66
2022-08-01T02:09:15.360Z,102428.56
2022-08-01T02:12:07.215Z,102434.75
2022-08-01T02:14:30.334Z,102428.75
2022-08-01T02:16:58.916Z,102428.81
2022-08-01T02:19:25.744Z,102426.63
2022-08-01T02:22:02.373Z,102430.84
2022-08-01T02:24:59.935Z,102429.03
2022-08-01T02:27:34.970Z,102430.47
2022-08-01T02:30:07.802Z,102434.31
2022-08-01T02:32:56.120Z,102436.41
2022-08-01T02:35:29.145Z,102442.63
2022-08-01T02:37:58.323Z,102450.22
2022-08-01T02:40:27.397Z,102452.50
2022-08-01T02:42:56.643Z,102446.97
2022-08-01T02:45:26.480Z,102454.78
2022-08-01T02:47:58.884Z,102458.63
2022-08-01T02:50:27.519Z,102468.81
2022-08-01T02:52:57.752Z,102461.22
2022-08-01T02:55:25.256Z,102475.72
2022-08-01T02:58:00.136Z,102469.69
2022-08-01T03:00:31.228Z,102482.81
2022-08-01T03:02:59.448Z,102475.25
2022-08-01T03:05:27.780Z,102465.34
2022-08-01T03:07:54.906Z,102467.28
2022-08-01T03:10:22.146Z,102470.16
2022-08-01T03:12:51.141Z,102478.31
2022-08-01T03:15:18.852Z,102476.75
2022-08-01T03:17:46.946Z,102472.75
2022-08-01T03:20:18.285Z,102468.91
2022-08-01T03:22:46.164Z,102470.56
2022-08-01T03:25:14.814Z,102469.38
2022-08-01T03:27:44.266Z,102481.75
2022-08-01T03:30:12.147Z,102490.66
2022-08-01T03:32:39.559Z,102483.38
2022-08-01T03:35:06.449Z,102493.63
2022-08-01T03:38:00.301Z,102491.63
2022-08-01T03:40:38.064Z,102492.66
2022-08-01T03:43:08.186Z,102488.91
2022-08-01T03:45:41.324Z,102484.03
2022-08-01T03:48:14.183Z,102489.53
2022-08-01T03:50:43.636Z,102492.97
2022-08-01T03:53:12.120Z,102493.91
2022-08-01T03:55:42.339Z,102485.19
2022-08-01T03:58:10.385Z,102492.47
2022-08-01T04:00:40.655Z,102492.00
2022-08-01T04:03:13.083Z,102492.72
2022-08-01T04:05:43.411Z,102491.78
2022-08-01T04:08:09.950Z,102499.84
2022-08-01T04:10:37.867Z,102512.25
2022-08-01T04:13:04.400Z,102510.41
2022-08-01T04:15:31.380Z,102517.28
2022-08-01T04:17:58.148Z,102528.22
2022-08-01T04:20:24.594Z,102527.25
2022-08-01T04:22:51.358Z,102507.81
2022-08-01T04:25:40.354Z,102511.44
2022-08-01T04:28:10.100Z,102523.59
2022-08-01T04:30:38.942Z,102515.16
2022-08-01T04:33:09.040Z,102510.56
2022-08-01T04:36:02.269Z,102502.75
2022-08-01T04:38:28.417Z,102497.38
2022-08-01T04:40:55.783Z,102493.72
2022-08-01T04:43:23.873Z,102486.44
2022-08-01T04:45:51.925Z,102494.88
2022-08-01T04:48:22.992Z,102490.00
2022-08-01T04:50:50.257Z,102488.66
2022-08-01T04:53:22.872Z,102492.19
2022-08-01T04:55:49.379Z,102499.56
2022-08-01T04:58:18.707Z,102492.56
2022-08-01T05:00:46.669Z,102493.63
2022-08-01T05:03:13.146Z,102481.66
2022-08-01T05:05:39.833Z,102483.84
2022-08-01T05:08:07.176Z,102493.22
2022-08-01T05:10:34.720Z,102480.75
2022-08-01T05:13:01.235Z,102479.56
2022-08-01T05:15:28.091Z,102476.66
2022-08-01T05:17:55.152Z,102471.28
2022-08-01T05:20:22.203Z,102460.72
2022-08-01T05:22:48.724Z,102466.28
2022-08-01T05:25:20.245Z,102449.06
2022-08-01T05:27:49.096Z,102453.66
2022-08-01T05:30:17.727Z,102447.34
2022-08-01T05:32:44.300Z,102430.91
2022-08-01T05:35:10.745Z,102429.78
2022-08-01T05:37:37.271Z,102425.50
2022-08-01T05:40:04.692Z,102418.81
2022-08-01T05:42:31.184Z,102401.19
2022-08-01T05:44:57.955Z,102400.09
2022-08-01T05:47:24.713Z,102396.66
2022-08-01T05:49:51.338Z,102380.63
2022-08-01T05:52:53.432Z,102381.38
2022-08-01T05:55:19.938Z,102375.97
2022-08-01T05:57:46.391Z,102369.22
2022-08-01T06:00:13.987Z,102368.09
2022-08-01T06:02:42.679Z,102360.41
2022-08-01T06:05:13.049Z,102350.28
2022-08-01T06:08:16.054Z,102339.22
2022-08-01T06:10:42.495Z,102342.34
2022-08-01T06:13:09.108Z,102330.50
2022-08-01T06:15:35.612Z,102331.47
2022-08-01T06:18:02.139Z,102324.72
2022-08-01T06:20:28.723Z,102322.53
2022-08-01T06:22:55.590Z,102315.94
2022-08-01T06:25:22.954Z,102317.38
2022-08-01T06:27:50.550Z,102315.41
2022-08-01T06:30:17.320Z,102314.34
2022-08-01T06:32:43.770Z,102321.59
2022-08-01T06:35:10.272Z,102306.16
2022-08-01T06:37:36.855Z,102300.94
2022-08-01T06:40:16.316Z,102294.25
2022-08-01T06:42:43.359Z,102284.69
2022-08-01T06:45:11.184Z,102291.19
2022-08-01T06:47:38.719Z,102279.78
2022-08-01T06:50:06.546Z,102283.31
2022-08-01T06:52:36.585Z,102279.31
2022-08-01T06:55:04.168Z,102283.03
2022-08-01T06:57:30.672Z,102278.28
2022-08-01T06:59:57.272Z,102284.88
2022-08-01T07:02:24.015Z,102288.78
2022-08-01T07:04:50.515Z,102281.53
2022-08-01T07:07:17.187Z,102277.28
2022-08-01T07:09:44.228Z,102280.47
2022-08-01T07:12:10.777Z,102267.63
2022-08-01T07:14:37.226Z,102258.84
2022-08-01T07:17:03.683Z,102217.91
2022-08-01T07:19:30.179Z,102208.28
2022-08-01T07:21:56.627Z,102177.16
2022-08-01T07:24:24.828Z,102163.81
2022-08-01T07:26:55.067Z,102144.13
2022-08-01T07:29:24.053Z,102124.28
2022-08-01T07:31:51.642Z,102081.66
2022-08-01T07:34:18.128Z,102044.50
2022-08-01T07:36:44.589Z,102023.19
2022-08-01T07:39:11.048Z,101999.41
2022-08-01T07:41:52.807Z,101980.59
2022-08-01T07:44:24.063Z,101960.88
2022-08-01T07:46:54.747Z,101937.13
2022-08-01T07:49:22.702Z,101913.94
2022-08-01T07:52:13.279Z,101894.41
2022-08-01T07:54:36.160Z,101854.84
2022-08-01T07:57:03.644Z,101796.13
2022-08-01T07:59:30.595Z,101775.13
2022-08-01T08:01:58.446Z,101752.91
2022-08-01T08:04:25.352Z,101733.38
2022-08-01T08:06:51.940Z,101696.72
2022-08-01T08:09:18.444Z,101683.22
2022-08-01T08:11:47.782Z,101661.22
2022-08-01T08:14:15.004Z,101648.81
2022-08-01T08:16:41.485Z,101629.31
2022-08-01T08:19:07.978Z,101613.16
2022-08-01T08:21:34.536Z,101597.09
2022-08-01T08:24:19.435Z,101593.84
2022-08-01T08:26:46.878Z,101590.22
2022-08-01T08:29:18.806Z,101584.72
2022-08-01T08:31:51.296Z,101573.00
2022-08-01T08:34:19.538Z,101578.38
2022-08-01T08:36:47.859Z,101576.66
2022-08-01T08:39:14.759Z,101576.16
2022-08-01T08:41:42.379Z,101562.09
2022-08-01T08:44:10.866Z,101561.78
2022-08-01T08:46:43.432Z,101561.06
2022-08-01T08:49:11.407Z,101565.56
2022-08-01T08:51:42.388Z,101577.41
2022-08-01T08:54:13.799Z,101579.84
2022-08-01T08:56:41.369Z,101577.88
2022-08-01T08:59:07.851Z,101572.00
2022-08-01T09:01:36.157Z,101575.94
2022-08-01T09:04:03.920Z,101566.78
2022-08-01T09:06:31.649Z,101574.91
2022-08-01T09:08:59.205Z,101579.34
2022-08-01T09:11:25.896Z,101580.34
2022-08-01T09:14:09.499Z,101572.84
2022-08-01T09:16:37.761Z,101567.38
2022-08-01T09:19:39.580Z,101574.13
2022-08-01T09:22:05.433Z,101570.56
2022-08-01T09:24:33.226Z,101574.47
2022-08-01T09:27:00.876Z,101568.38
2022-08-01T09:29:38.229Z,101584.00
2022-08-01T09:32:08.412Z,101571.00
2022-08-01T09:34:42.599Z,101573.94
2022-08-01T09:37:09.403Z,101577.22
2022-08-01T09:39:40.485Z,101576.84
2022-08-01T09:42:20.404Z,101579.16
2022-08-01T09:44:55.214Z,101573.81
2022-08-01T09:47:23.756Z,101587.28
2022-08-01T09:49:59.443Z,101586.66
2022-08-01T09:52:29.076Z,101577.66
2022-08-01T09:55:01.680Z,101578.00
2022-08-01T09:57:29.386Z,101585.50
2022-08-01T09:59:59.967Z,101575.72
2022-08-01T10:02:38.798Z,101586.09
2022-08-01T10:05:09.033Z,101577.16
2022-08-01T10:08:02.290Z,101573.06
2022-08-01T10:10:34.626Z,101580.75
2022-08-01T10:13:05.123Z,101584.75
2022-08-01T10:15:36.692Z,101587.53
2022-08-01T10:18:26.131Z,101588.50
2022-08-01T10:20:56.650Z,101590.97
2022-08-01T10:23:40.592Z,101590.53
2022-08-01T10:26:09.353Z,101584.81
2022-08-01T10:28:40.308Z,101579.31
2022-08-01T10:31:12.666Z,101581.91
2022-08-01T10:33:51.025Z,101575.75
2022-08-01T10:36:21.460Z,101583.16
2022-08-01T10:38:49.500Z,101574.56
2022-08-01T10:41:16.757Z,101584.53
2022-08-01T10:43:45.640Z,101599.16
2022-08-01T10:46:13.663Z,101602.75
2022-08-01T10:48:57.698Z,101605.63
2022-08-01T10:51:52.966Z,101612.66
2022-08-01T10:54:14.039Z,101597.75
2022-08-01T10:56:46.081Z,101583.84
2022-08-01T10:59:29.058Z,101576.88
2022-08-01T11:02:26.564Z,101552.59
2022-08-01T11:05:04.387Z,101584.25
2022-08-01T11:07:46.912Z,101689.63
2022-08-01T11:10:30.265Z,101709.47
2022-08-01T11:12:56.979Z,101742.22
2022-08-01T11:15:28.828Z,101741.66
2022-08-01T11:18:00.432Z,101714.63
2022-08-01T11:20:33.819Z,101764.44
2022-08-01T11:23:05.887Z,101694.63
2022-08-01T11:26:05.469Z,101686.88
2022-08-01T11:28:33.890Z,101676.56
2022-08-01T11:31:10.751Z,101638.31
2022-08-01T11:33:46.943Z,101634.47
2022-08-01T11:36:14.441Z,101673.25
2022-08-01T11:38:42.349Z,101616.63
2022-08-01T11:41:10.905Z,101607.09
2022-08-01T11:44:00.971Z,101586.22
2022-08-01T11:47:09.675Z,101542.13
2022-08-01T11:49:48.658Z,101529.09
2022-08-01T11:52:30.649Z,101557.47
2022-08-01T11:55:05.739Z,101598.84
2022-08-01T11:57:38.278Z,101463.56
2022-08-01T12:00:20.276Z,101537.25
2022-08-01T12:02:57.010Z,101562.13
2022-08-01T12:05:26.496Z,101546.56
2022-08-01T12:07:54.277Z,101544.34
2022-08-01T12:10:23.584Z,101452.28
2022-08-01T12:12:54.319Z,101423.81
2022-08-01T12:15:23.596Z,101525.34
2022-08-01T12:17:58.498Z,101564.91
2022-08-01T12:20:34.892Z,101471.63
2022-08-01T12:23:06.740Z,101517.03
2022-08-01T12:25:33.960Z,101498.09
2022-08-01T12:28:02.588Z,101432.13
2022-08-01T12:30:31.835Z,101445.00
2022-08-01T12:32:58.997Z,101474.59
2022-08-01T12:35:28.467Z,101343.41
2022-08-01T12:38:05.886Z,101319.78
2022-08-01T12:40:34.938Z,101393.94
2022-08-01T12:43:07.473Z,101436.50
2022-08-01T12:45:54.487Z,101480.53
2022-08-01T12:48:25.265Z,101340.03
2022-08-01T12:50:53.451Z,101377.25
2022-08-01T12:53:21.594Z,101338.00
2022-08-01T12:55:58.564Z,101453.94
2022-08-01T12:58:32.544Z,101385.09
2022-08-01T13:01:09.534Z,101321.03
2022-08-01T13:03:36.465Z,101269.31
2022-08-01T13:06:11.958Z,101326.34
2022-08-01T13:08:39.358Z,101215.88
2022-08-01T13:11:19.017Z,101167.81
2022-08-01T13:13:49.940Z,101336.13
2022-08-01T13:16:43.306Z,101227.66
2022-08-01T13:19:13.694Z,101342.53
2022-08-01T13:21:52.463Z,101198.88
2022-08-01T13:24:28.916Z,101226.00
2022-08-01T13:27:01.662Z,101246.31
2022-08-01T13:29:38.844Z,101333.59
2022-08-01T13:32:29.062Z,101250.00
2022-08-01T13:35:10.145Z,101304.91
2022-08-01T13:37:41.687Z,101195.28
2022-08-01T13:40:09.469Z,101057.88
2022-08-01T13:42:36.122Z,101257.13
2022-08-01T13:45:14.811Z,101250.78
2022-08-01T13:48:03.266Z,101231.94
2022-08-01T13:50:29.319Z,101220.16
2022-08-01T13:52:55.968Z,101284.59
2022-08-01T13:55:22.449Z,101214.69
2022-08-01T13:57:49.002Z,101279.81
2022-08-01T14:00:15.871Z,101255.03
2022-08-01T14:02:42.346Z,101295.66
2022-08-01T14:05:09.260Z,101118.31
2022-08-01T14:07:35.963Z,101201.59
2022-08-01T14:10:19.813Z,101315.88
2022-08-01T14:12:50.868Z,101324.47
2022-08-01T14:15:36.972Z,101295.97
2022-08-01T14:18:05.891Z,101269.47
2022-08-01T14:20:33.123Z,101157.59
2022-08-01T14:22:59.941Z,101077.28
2022-08-01T14:26:05.562Z,101132.53
2022-08-01T14:28:12.908Z,101161.13
2022-08-01T14:30:39.607Z,101067.34
2022-08-01T14:33:06.085Z,100983.31
2022-08-01T14:35:46.445Z,101091.31
2022-08-01T14:38:31.190Z,101152.31
2022-08-01T14:41:00.348Z,100966.97
2022-08-01T14:43:32.449Z,101079.94
2022-08-01T14:45:59.643Z,101245.88
2022-08-01T14:48:26.199Z,101136.34
2022-08-01T14:50:52.706Z,101108.66
2022-08-01T14:53:19.200Z,101236.97
2022-08-01T14:55:45.709Z,101314.88
2022-08-01T14:58:12.291Z,101283.97
2022-08-01T15:00:39.143Z,101136.16
2022-08-01T15:03:05.640Z,101164.91
2022-08-01T15:05:33.750Z,101192.13
2022-08-01T15:08:00.239Z,101148.50
2022-08-01T15:10:26.825Z,101275.63
2022-08-01T15:12:53.352Z,101233.34
2022-08-01T15:15:20.295Z,101237.84
2022-08-01T15:17:46.799Z,101256.34
2022-08-01T15:20:13.426Z,101031.78
2022-08-01T15:22:39.942Z,101026.94
2022-08-01T15:25:06.747Z,101273.66
2022-08-01T15:27:33.279Z,101322.59
2022-08-01T15:30:00.073Z,101252.28
2022-08-01T15:32:26.535Z,101284.69
2022-08-01T15:34:53.370Z,101268.97
2022-08-01T15:37:21.419Z,101056.66
2022-08-01T15:39:48.560Z,101084.78
2022-08-01T15:42:20.118Z,101293.84
2022-08-01T15:44:52.168Z,101311.34
2022-08-01T15:47:18.647Z,101273.22
2022-08-01T15:49:45.617Z,101154.34
2022-08-01T15:52:21.330Z,101272.47
2022-08-01T15:54:49.160Z,101394.78
2022-08-01T15:57:15.669Z,101462.56
2022-08-01T15:59:42.307Z,101277.34
2022-08-01T16:02:09.281Z,101310.94
2022-08-01T16:04:36.280Z,101279.06
2022-08-01T16:07:06.064Z,101302.94
2022-08-01T16:09:32.632Z,101186.34
2022-08-01T16:11:59.100Z,101350.69
2022-08-01T16:14:25.556Z,101305.47
2022-08-01T16:16:55.464Z,101155.94
2022-08-01T16:19:22.022Z,101233.16
2022-08-01T16:21:48.491Z,101314.22
2022-08-01T16:24:15.106Z,101363.88
2022-08-01T16:26:43.013Z,101361.72
2022-08-01T16:29:09.473Z,101357.69
2022-08-01T16:31:43.857Z,101424.81
2022-08-01T16:34:23.625Z,101456.66
2022-08-01T16:36:50.674Z,101392.00
2022-08-01T16:39:22.473Z,101311.75
2022-08-01T16:41:50.413Z,101325.38
2022-08-01T16:44:26.916Z,101373.81
2022-08-01T16:47:00.770Z,101356.47
2022-08-01T16:49:27.272Z,101358.22
2022-08-01T16:51:53.780Z,101294.44
2022-08-01T16:54:25.668Z,101331.22
2022-08-01T16:56:53.198Z,101254.41
2022-08-01T16:59:19.650Z,101352.00
2022-08-01T17:01:59.032Z,101399.09
2022-08-01T17:04:29.299Z,101418.97
2022-08-01T17:06:55.951Z,101357.25
2022-08-01T17:09:23.128Z,101272.19
2022-08-01T17:11:49.724Z,101376.03
2022-08-01T17:14:16.379Z,101514.47
2022-08-01T17:16:43.249Z,101492.38
2022-08-01T17:19:10.119Z,101396.44
2022-08-01T17:21:40.953Z,101344.47
2022-08-01T17:24:08.305Z,101460.31
2022-08-01T17:26:34.809Z,101535.41
2022-08-01T17:29:01.313Z,101495.69
2022-08-01T17:31:27.772Z,101528.31
2022-08-01T17:33:55.193Z,101552.50
2022-08-01T17:36:22.148Z,101555.22
2022-08-01T17:38:48.747Z,101564.03
2022-08-01T17:41:15.456Z,101531.50
2022-08-01T17:43:41.928Z,101566.41
2022-08-01T17:46:08.609Z,101547.41
2022-08-01T17:48:35.403Z,101643.31
2022-08-01T17:51:02.072Z,101610.06
2022-08-01T17:53:29.459Z,101676.03
2022-08-01T17:55:58.537Z,101752.25
2022-08-01T17:58:49.049Z,101834.78
2022-08-01T18:01:15.302Z,101879.78
2022-08-01T18:03:42.215Z,101891.72
2022-08-01T18:06:10.250Z,101917.63
2022-08-01T18:08:40.248Z,101925.06
2022-08-01T18:11:07.791Z,101963.03
2022-08-01T18:13:34.280Z,101978.22
2022-08-01T18:16:01.112Z,101996.84
2022-08-01T18:18:33.441Z,101998.19
2022-08-01T18:21:01.820Z,102015.72
2022-08-01T18:23:28.580Z,102012.13
2022-08-01T18:25:55.108Z,102012.44
2022-08-01T18:28:31.301Z,102013.47
2022-08-01T18:31:00.884Z,102012.78
2022-08-01T18:33:27.921Z,102019.50
2022-08-01T18:35:56.138Z,102013.88
2022-08-01T18:38:29.436Z,102016.09
2022-08-01T18:40:56.129Z,102025.41
2022-08-01T18:43:22.637Z,102027.06
2022-08-01T18:45:49.474Z,102019.03
2022-08-01T18:48:16.021Z,102023.00
2022-08-01T18:50:42.576Z,102017.63
2022-08-01T18:53:09.120Z,102019.69
2022-08-01T18:55:35.702Z,102012.78
2022-08-01T18:58:02.368Z,102025.38
2022-08-01T19:00:28.846Z,102020.28
2022-08-01T19:02:55.385Z,102022.91
2022-08-01T19:05:21.957Z,102008.84
2022-08-01T19:08:05.548Z,101998.94
2022-08-01T19:10:38.735Z,101992.50
2022-08-01T19:13:07.753Z,101978.81
2022-08-01T19:15:35.052Z,101979.31
2022-08-01T19:18:02.212Z,101973.56
2022-08-01T19:20:29.204Z,101977.06
2022-08-01T19:22:56.083Z,101976.69
2022-08-01T19:25:22.691Z,101964.81
2022-08-01T19:27:50.854Z,101944.44
2022-08-01T19:30:19.056Z,101936.34
2022-08-01T19:32:48.661Z,101918.03
2022-08-01T19:35:17.172Z,101901.03
2022-08-01T19:37:47.043Z,101901.88
2022-08-01T19:40:27.753Z,101891.56
2022-08-01T19:42:56.030Z,101880.91
2022-08-01T19:45:22.811Z,101879.38
2022-08-01T19:47:56.187Z,101877.47
2022-08-01T19:50:24.072Z,101884.25
2022-08-01T19:52:52.665Z,101875.63
2022-08-01T19:55:19.556Z,101885.06
2022-08-01T19:57:59.236Z,101882.41
2022-08-01T20:00:37.744Z,101868.53
2022-08-01T20:03:05.474Z,101861.59
2022-08-01T20:05:32.123Z,101847.84
2022-08-01T20:07:58.830Z,101831.06
2022-08-01T20:10:25.560Z,101806.38
2022-08-01T20:12:53.703Z,101803.59
2022-08-01T20:15:22.314Z,101794.59
2022-08-01T20:17:48.811Z,101777.28
2022-08-01T20:20:15.422Z,101768.28
2022-08-01T20:22:42.012Z,101755.47
2022-08-01T20:25:09.733Z,101730.03
2022-08-01T20:27:38.788Z,101719.59
2022-08-01T20:30:06.433Z,101715.69
2022-08-01T20:32:34.542Z,101717.91
2022-08-01T20:35:01.707Z,101711.19
2022-08-01T20:38:06.628Z,101721.38
2022-08-01T20:40:15.636Z,101713.91
2022-08-01T20:42:45.224Z,101711.22
2022-08-01T20:45:16.622Z,101704.00
2022-08-01T20:47:46.815Z,101709.53
2022-08-01T20:50:52.718Z,101703.00
2022-08-01T20:53:18.840Z,101703.47
2022-08-01T20:55:50.092Z,101688.09
2022-08-01T20:58:27.478Z,101685.53
2022-08-01T21:00:56.809Z,101691.34
2022-08-01T21:03:31.120Z,101684.56
2022-08-01T21:06:07.979Z,101683.44
2022-08-01T21:08:47.586Z,101672.97
2022-08-01T21:11:19.829Z,101675.22
2022-08-01T21:13:48.223Z,101664.97
2022-08-01T21:16:22.948Z,101663.09
2022-08-01T21:19:18.110Z,101657.81
2022-08-01T21:22:09.659Z,101661.72
2022-08-01T21:24:58.648Z,101655.53
2022-08-01T21:27:33.667Z,101654.41
2022-08-01T21:30:02.382Z,101642.19
2022-08-01T21:32:32.734Z,101630.03
2022-08-01T21:35:01.458Z,101626.69
2022-08-01T21:37:29.644Z,101626.72
2022-08-01T21:39:58.164Z,101632.50
2022-08-01T21:42:27.897Z,101624.63
2022-08-01T21:44:58.537Z,101635.81
2022-08-01T21:47:28.887Z,101644.22
2022-08-01T21:50:00.135Z,101667.44
2022-08-01T21:52:30.344Z,101680.81
2022-08-01T21:55:10.893Z,101692.44
2022-08-01T21:58:07.082Z,101705.81
2022-08-01T22:00:37.208Z,101708.31
2022-08-01T22:03:27.177Z,101706.91
2022-08-01T22:05:55.962Z,101723.03
2022-08-01T22:08:36.832Z,101736.22
2022-08-01T22:11:07.061Z,101737.84
2022-08-01T22:13:37.167Z,101753.75
2022-08-01T22:16:05.682Z,101762.09
2022-08-01T22:18:33.938Z,101766.09
2022-08-01T22:21:01.854Z,101778.53
2022-08-01T22:23:28.500Z,101781.81
2022-08-01T22:25:56.047Z,101791.81
2022-08-01T22:28:23.893Z,101812.50
2022-08-01T22:30:51.876Z,101822.84
2022-08-01T22:33:19.348Z,101832.47
2022-08-01T22:35:48.458Z,101849.69
2022-08-01T22:38:17.894Z,101864.22
2022-08-01T22:40:58.496Z,101874.25
2022-08-01T22:43:26.431Z,101897.78
2022-08-01T22:46:12.660Z,101920.66
2022-08-01T22:48:46.477Z,101939.34
2022-08-01T22:51:34.086Z,101963.53
2022-08-01T22:54:05.678Z,101978.22
2022-08-01T22:56:37.792Z,101988.13
2022-08-01T22:59:11.213Z,102006.78
2022-08-01T23:01:47.503Z,102024.84
2022-08-01T23:04:39.020Z,102043.75
2022-08-01T23:07:06.658Z,102063.13
2022-08-01T23:09:54.407Z,102067.09
2022-08-01T23:12:24.571Z,102081.47
2022-08-01T23:14:55.853Z,102086.09
2022-08-01T23:17:26.400Z,102097.00
2022-08-01T23:19:57.206Z,102103.06
2022-08-01T23:22:27.415Z,102116.59
2022-08-01T23:25:05.138Z,102114.63
2022-08-01T23:27:51.597Z,102135.19
2022-08-01T23:30:25.536Z,102134.50
2022-08-01T23:32:52.159Z,102139.16
2022-08-01T23:35:18.816Z,102150.03
2022-08-01T23:37:45.394Z,102160.31
2022-08-01T23:40:12.359Z,102162.19
2022-08-01T23:42:38.862Z,102168.59
2022-08-01T23:45:06.724Z,102180.06
2022-08-01T23:47:33.452Z,102180.59
2022-08-01T23:50:00.001Z,102191.41
2022-08-01T23:52:32.060Z,102209.03
2022-08-01T23:54:59.843Z,102218.38
2022-08-01T23:57:33.013Z,102224.81
